Time;durP1;ratioP1;P1;durP2;ratioP2;P2;SDS_P1;SDS_P2;PMS_P1;PMS_P2;Temp;Humidity;BMP_temperature;BMP_pressure;BME280_temperature;BME280_humidity;BME280_pressure;Samples;Min_cycle;Max_cycle;Signal;HPM_P1;HPM_P2
2023/01/12 00:01:56;;;;;;;9.07;3.67;;;25.50;63.70;;;;;;5052206;28;20241;-73
2023/01/12 00:04:23;;;;;;;7.93;3.53;;;25.40;64.50;;;;;;5052232;28;20180;-72
2023/01/12 00:06:51;;;;;;;12.03;3.40;;;25.50;63.80;;;;;;5052352;28;20183;-73
2023/01/12 00:09:18;;;;;;;9.57;3.70;;;25.30;64.40;;;;;;5051460;28;20196;-71
2023/01/12 00:11:46;;;;;;;11.30;3.60;;;25.30;64.90;;;;;;5052418;28;20179;-72
2023/01/12 00:14:13;;;;;;;11.73;3.77;;;25.10;66.20;;;;;;5045688;28;20233;-73
2023/01/12 00:16:41;;;;;;;10.83;3.13;;;25.10;66.20;;;;;;5051991;28;20168;-72
2023/01/12 00:19:21;;;;;;;7.33;3.17;;;25.10;66.50;;;;;;5050474;28;20184;-73
2023/01/12 00:24:38;;;;;;;11.13;3.17;;;25.20;66.90;;;;;;5049823;28;20213;-73
2023/01/12 00:27:08;;;;;;;13.90;4.67;;;25.00;67.00;;;;;;5051707;28;20546;-72
2023/01/12 00:29:36;;;;;;;15.07;4.93;;;25.00;67.20;;;;;;5050429;28;20175;-73
2023/01/12 00:32:05;;;;;;;10.00;4.80;;;24.90;67.70;;;;;;5051392;28;20168;-72
2023/01/12 00:34:33;;;;;;;9.83;3.90;;;24.80;67.90;;;;;;5047345;28;20219;-70
2023/01/12 00:37:01;;;;;;;13.83;3.70;;;24.70;68.40;;;;;;5051935;28;20271;-71
2023/01/12 00:39:28;;;;;;;13.20;4.13;;;24.80;68.60;;;;;;5051392;28;21204;-72
2023/01/12 00:47:27;;;;;;;10.57;6.37;;;25.00;67.80;;;;;;5050881;28;20187;-73
2023/01/12 00:49:54;;;;;;;15.33;8.97;;;25.10;67.00;;;;;;5050274;28;20219;-73
2023/01/12 00:52:21;;;;;;;12.27;6.53;;;25.10;67.00;;;;;;5050481;28;20175;-73
2023/01/12 00:54:49;;;;;;;11.47;5.90;;;25.20;67.20;;;;;;5051026;28;20219;-72
2023/01/12 00:57:18;;;;;;;20.67;7.47;;;25.20;66.70;;;;;;5049844;28;20707;-71
2023/01/12 00:59:46;;;;;;;14.33;6.17;;;25.10;66.60;;;;;;5051235;28;20192;-74
2023/01/12 01:02:13;;;;;;;13.40;7.13;;;25.10;66.80;;;;;;5050638;28;20180;-72
2023/01/12 01:04:41;;;;;;;16.60;6.40;;;25.20;66.40;;;;;;5051009;28;20245;-73
2023/01/12 01:07:08;;;;;;;14.60;7.03;;;25.20;65.90;;;;;;5050684;28;20590;-72
2023/01/12 01:09:35;;;;;;;12.33;5.43;;;25.30;66.30;;;;;;5050125;28;20172;-71
2023/01/12 01:12:03;;;;;;;12.37;3.63;;;25.30;65.90;;;;;;5050982;28;20203;-72
2023/01/12 01:14:30;;;;;;;10.83;3.47;;;25.20;65.60;;;;;;5050915;28;20208;-73
2023/01/12 01:16:58;;;;;;;6.50;2.93;;;25.20;66.20;;;;;;5050942;28;20180;-71
2023/01/12 01:19:25;;;;;;;10.83;3.07;;;25.20;65.40;;;;;;5050498;28;20187;-72
2023/01/12 01:21:52;;;;;;;11.63;3.00;;;25.30;65.80;;;;;;5050881;28;20176;-73
2023/01/12 01:24:20;;;;;;;10.73;2.40;;;25.30;64.70;;;;;;5050991;28;20182;-71
2023/01/12 01:26:50;;;;;;;6.27;2.53;;;25.60;64.00;;;;;;5049854;28;20207;-72
2023/01/12 01:29:18;;;;;;;6.67;2.50;;;25.80;63.80;;;;;;5051440;28;20191;-72
2023/01/12 01:31:46;;;;;;;6.33;2.30;;;25.80;63.20;;;;;;5051101;28;20222;-72
2023/01/12 01:34:14;;;;;;;15.13;3.20;;;26.00;62.60;;;;;;5051164;28;20222;-72
2023/01/12 01:36:42;;;;;;;6.83;2.60;;;26.40;61.30;;;;;;5054100;28;20211;-73
2023/01/12 01:39:09;;;;;;;11.03;2.87;;;26.50;61.20;;;;;;5054676;28;20196;-72
2023/01/12 01:41:36;;;;;;;12.17;3.07;;;26.70;60.80;;;;;;5054949;28;20578;-72
2023/01/12 01:44:23;;;;;;;10.60;2.97;;;26.50;60.70;;;;;;5055005;28;20168;-72
2023/01/12 01:47:10;;;;;;;11.23;2.57;;;26.50;61.50;;;;;;5055035;28;20559;-72
2023/01/12 01:49:46;;;;;;;10.87;3.10;;;26.80;60.40;;;;;;5050829;28;20247;-71
2023/01/12 01:52:14;;;;;;;8.33;2.83;;;27.00;60.10;;;;;;5054623;28;20179;-72
2023/01/12 01:54:55;;;;;;;7.03;2.70;;;27.20;59.30;;;;;;5055288;28;20294;-69
2023/01/12 01:57:27;;;;;;;9.87;3.93;;;27.00;59.60;;;;;;5054020;28;20180;-72
2023/01/12 01:59:56;;;;;;;9.10;3.07;;;27.20;59.10;;;;;;5054841;28;20607;-71
2023/01/12 02:02:25;;;;;;;7.57;3.50;;;27.00;60.00;;;;;;5055086;28;20172;-72
2023/01/12 02:04:55;;;;;;;7.00;2.90;;;27.10;58.80;;;;;;5054317;28;20623;-73
2023/01/12 02:07:22;;;;;;;9.00;3.43;;;27.20;58.30;;;;;;5053341;28;20629;-74
2023/01/12 02:09:50;;;;;;;9.33;4.00;;;27.20;58.00;;;;;;5054610;28;20172;-73
2023/01/12 02:18:09;;;;;;;6.13;3.00;;;27.70;57.40;;;;;;5052856;28;20236;-70
2023/01/12 02:20:54;;;;;;;5.83;2.30;;;27.90;56.00;;;;;;5053499;28;20176;-72
2023/01/12 02:23:22;;;;;;;9.13;2.57;;;27.80;53.80;;;;;;5053788;28;20516;-71
2023/01/12 02:26:25;;;;;;;10.80;2.27;;;27.80;55.30;;;;;;5052572;28;20176;-71
2023/01/12 02:29:22;;;;;;;4.77;2.10;;;27.80;54.20;;;;;;5053325;28;20187;-75
2023/01/12 02:32:08;;;;;;;5.77;2.40;;;27.80;53.70;;;;;;5049240;28;20203;-71
2023/01/12 02:34:54;;;;;;;6.37;3.20;;;28.00;53.80;;;;;;5052457;28;20237;-72
2023/01/12 02:37:46;;;;;;;6.77;2.33;;;27.90;53.00;;;;;;5052713;28;20188;-73
2023/01/12 02:40:29;;;;;;;5.97;2.50;;;28.00;53.90;;;;;;5053155;28;20190;-73
2023/01/12 02:43:14;;;;;;;8.90;2.63;;;28.20;54.00;;;;;;5053422;28;20187;-72
2023/01/12 02:46:00;;;;;;;6.50;3.20;;;28.00;54.40;;;;;;5053039;28;20183;-73
2023/01/12 02:48:50;;;;;;;5.63;2.27;;;28.10;54.90;;;;;;5079587;28;20568;-72
2023/01/12 02:51:54;;;;;;;7.27;3.20;;;28.30;54.70;;;;;;5052091;28;20215;-73
2023/01/12 02:54:24;;;;;;;6.77;3.07;;;28.50;54.80;;;;;;5053160;28;20215;-73
2023/01/12 02:56:55;;;;;;;8.20;4.00;;;28.80;53.20;;;;;;5052929;28;20226;-72
2023/01/12 02:59:33;;;;;;;8.60;2.30;;;28.60;52.30;;;;;;5050093;28;20179;-75
2023/01/12 03:02:13;;;;;;;5.27;2.10;;;28.80;52.30;;;;;;5052908;28;20271;-72
2023/01/12 03:04:41;;;;;;;4.50;1.53;;;28.10;52.60;;;;;;5052786;28;20190;-72
2023/01/12 03:07:34;;;;;;;6.27;2.03;;;28.10;52.40;;;;;;5052695;28;20630;-74
2023/01/12 03:10:15;;;;;;;9.93;2.63;;;28.30;51.80;;;;;;5052121;28;20211;-73
2023/01/12 03:12:44;;;;;;;5.17;2.03;;;28.50;52.30;;;;;;5049947;28;20226;-71
2023/01/12 03:15:15;;;;;;;6.10;2.40;;;28.70;51.70;;;;;;5048222;28;20659;-73
2023/01/12 03:17:52;;;;;;;5.07;1.87;;;28.60;53.00;;;;;;5050156;28;20178;-72
2023/01/12 03:20:32;;;;;;;7.27;1.83;;;28.50;53.50;;;;;;5052716;28;20848;-72
2023/01/12 03:23:11;;;;;;;4.93;2.17;;;28.40;53.30;;;;;;5053147;28;20188;-72
2023/01/12 03:25:42;;;;;;;7.27;2.43;;;28.30;53.90;;;;;;5053065;28;20670;-72
2023/01/12 03:28:12;;;;;;;5.87;2.00;;;28.90;52.60;;;;;;5052439;28;20597;-74
2023/01/12 03:31:09;;;;;;;5.87;2.13;;;29.00;52.90;;;;;;5052730;28;20179;-73
2023/01/12 03:33:39;;;;;;;7.70;2.27;;;28.90;53.50;;;;;;5043468;28;20879;-72
2023/01/12 03:36:16;;;;;;;8.80;2.30;;;29.10;53.00;;;;;;5052917;28;20172;-72
2023/01/12 03:38:43;;;;;;;5.07;1.77;;;29.50;52.10;;;;;;5052748;28;20233;-74
2023/01/12 03:41:33;;;;;;;6.03;2.00;;;29.70;52.10;;;;;;5052501;28;20183;-72
2023/01/12 03:44:08;;;;;;;4.63;1.50;;;29.30;51.90;;;;;;5052422;28;20179;-72
2023/01/12 03:46:43;;;;;;;4.45;1.80;;;29.20;52.70;;;;;;5048140;28;20187;-72
2023/01/12 03:49:45;;;;;;;7.85;1.98;;;29.00;53.30;;;;;;5052022;28;20186;-73
2023/01/12 03:52:13;;;;;;;7.47;1.70;;;29.30;51.80;;;;;;5050300;28;20218;-72
2023/01/12 03:54:43;;;;;;;9.20;2.15;;;29.10;52.20;;;;;;5052552;28;20212;-73
2023/01/12 03:57:11;;;;;;;6.50;1.67;;;29.00;52.90;;;;;;5052196;28;20551;-71
2023/01/12 03:59:40;;;;;;;5.55;1.70;;;29.00;53.10;;;;;;5050801;28;20231;-73
2023/01/12 04:02:08;;;;;;;7.07;1.83;;;29.00;52.70;;;;;;5052245;28;20184;-71
2023/01/12 04:04:36;;;;;;;4.55;1.83;;;29.10;52.40;;;;;;5051799;28;20199;-72
2023/01/12 04:07:03;;;;;;;6.07;1.80;;;29.70;51.80;;;;;;5052260;28;20191;-71
2023/01/12 04:09:31;;;;;;;9.18;2.22;;;29.40;51.00;;;;;;5050119;28;20180;-71
2023/01/12 04:12:10;;;;;;;4.18;1.90;;;29.50;51.40;;;;;;5049436;28;20184;-73
2023/01/12 04:14:39;;;;;;;8.48;2.28;;;29.60;50.80;;;;;;5046166;28;20238;-73
2023/01/12 04:17:09;;;;;;;6.15;2.00;;;29.60;51.00;;;;;;5051485;28;20183;-72
2023/01/12 04:19:36;;;;;;;5.45;2.05;;;29.50;50.50;;;;;;5057018;28;20253;-70
2023/01/12 04:24:50;;;;;;;6.37;1.57;;;29.30;49.50;;;;;;5051885;28;20186;-72
2023/01/12 04:27:17;;;;;;;4.90;1.50;;;29.30;49.00;;;;;;5050243;28;20203;-71
2023/01/12 04:29:45;;;;;;;5.60;1.98;;;29.60;48.40;;;;;;5050636;28;20186;-72
2023/01/12 04:32:12;;;;;;;10.95;2.13;;;29.60;47.80;;;;;;5051552;28;20642;-72
2023/01/12 04:34:40;;;;;;;6.47;2.27;;;29.20;49.90;;;;;;5051142;28;20216;-71
2023/01/12 04:37:07;;;;;;;5.88;1.60;;;28.90;50.70;;;;;;5050965;28;20232;-70
2023/01/12 04:39:34;;;;;;;4.65;1.65;;;28.80;51.20;;;;;;5051848;28;20789;-72
2023/01/12 04:42:02;;;;;;;6.35;1.90;;;29.40;50.20;;;;;;5051285;28;20172;-73
2023/01/12 04:44:31;;;;;;;5.68;1.88;;;29.20;49.90;;;;;;5049594;28;20196;-71
2023/01/12 04:46:58;;;;;;;4.38;1.42;;;29.30;49.60;;;;;;5051244;28;20188;-71
2023/01/12 04:49:25;;;;;;;3.50;1.80;;;29.40;48.90;;;;;;5049086;28;20183;-73
2023/01/12 04:51:52;;;;;;;5.93;2.20;;;29.90;48.50;;;;;;5050863;28;20201;-72
2023/01/12 04:54:20;;;;;;;4.03;1.65;;;29.80;49.10;;;;;;5051371;28;20280;-71
2023/01/12 04:56:47;;;;;;;3.80;1.80;;;29.40;50.00;;;;;;5050402;28;20329;-73
2023/01/12 04:59:14;;;;;;;8.57;3.53;;;29.50;50.20;;;;;;5050077;28;20294;-72
2023/01/12 05:01:42;;;;;;;8.18;3.75;;;29.50;48.90;;;;;;5051235;28;20184;-71
2023/01/12 05:04:09;;;;;;;5.53;2.05;;;29.20;50.10;;;;;;5050224;28;20267;-72
2023/01/12 05:06:36;;;;;;;4.68;1.80;;;29.80;50.00;;;;;;5049046;28;20196;-73
2023/01/12 05:11:49;;;;;;;6.95;1.67;;;30.10;49.10;;;;;;5056287;28;20541;-70
2023/01/12 05:14:16;;;;;;;3.75;1.70;;;30.50;47.30;;;;;;5054935;28;20211;-74
2023/01/12 05:16:43;;;;;;;3.22;1.40;;;29.30;49.80;;;;;;5053397;28;20220;-71
2023/01/12 05:19:11;;;;;;;4.50;1.70;;;29.30;49.20;;;;;;5051474;28;20572;-73
2023/01/12 05:21:38;;;;;;;7.93;1.80;;;29.80;48.60;;;;;;5052688;28;20627;-73
2023/01/12 05:24:06;;;;;;;5.33;1.80;;;29.40;49.20;;;;;;5053858;28;20194;-71
2023/01/12 05:26:33;;;;;;;3.13;1.75;;;29.70;48.30;;;;;;5058776;28;20187;-72
2023/01/12 05:29:00;;;;;;;3.42;1.50;;;30.00;47.90;;;;;;5056489;28;20187;-72
2023/01/12 05:31:28;;;;;;;8.68;2.13;;;29.40;48.80;;;;;;5053946;28;20199;-71
2023/01/12 05:33:55;;;;;;;2.80;2.07;;;29.80;48.50;;;;;;5051246;28;20285;-72
2023/01/12 05:36:22;;;;;;;4.43;1.40;;;29.30;50.50;;;;;;5053914;28;20234;-74
2023/01/12 05:38:50;;;;;;;5.72;1.83;;;29.30;50.00;;;;;;5055843;28;20196;-71
2023/01/12 05:41:17;;;;;;;4.28;1.65;;;29.50;49.60;;;;;;5054951;28;20186;-71
2023/01/12 05:43:50;;;;;;;9.87;2.13;;;29.40;49.60;;;;;;5054043;28;20662;-72
2023/01/12 05:46:32;;;;;;;5.13;1.70;;;29.60;49.50;;;;;;5052283;28;20179;-73
2023/01/12 05:48:59;;;;;;;7.30;2.25;;;29.90;48.10;;;;;;5054418;28;20554;-73
2023/01/12 05:51:29;;;;;;;2.78;1.40;;;30.30;47.00;;;;;;5050577;28;20752;-75
2023/01/12 05:53:57;;;;;;;5.38;3.38;;;30.10;46.30;;;;;;5051766;28;20196;-71
2023/01/12 05:56:26;;;;;;;6.10;2.10;;;30.00;46.30;;;;;;5058649;28;20246;-72
2023/01/12 05:58:57;;;;;;;6.53;2.55;;;29.90;47.30;;;;;;5050161;28;20187;-71
2023/01/12 06:01:24;;;;;;;7.28;2.42;;;29.80;47.50;;;;;;5050479;28;20195;-72
2023/01/12 06:03:54;;;;;;;2.35;1.25;;;29.70;47.20;;;;;;5053370;28;20176;-71
2023/01/12 06:06:24;;;;;;;3.42;1.38;;;29.40;47.40;;;;;;5052114;28;20176;-72
2023/01/12 06:08:52;;;;;;;3.23;1.43;;;29.90;46.50;;;;;;5053014;28;20650;-72
2023/01/12 06:14:14;;;;;;;4.97;1.50;;;29.00;48.00;;;;;;5045740;28;20222;-73
2023/01/12 06:16:42;;;;;;;9.02;1.30;;;29.70;47.10;;;;;;5058536;28;20187;-72
2023/01/12 06:19:11;;;;;;;4.20;1.63;;;29.60;46.90;;;;;;5053202;28;20187;-72
2023/01/12 06:21:39;;;;;;;5.47;1.20;;;29.40;47.40;;;;;;5052934;28;20188;-72
2023/01/12 06:24:07;;;;;;;3.07;1.13;;;29.40;47.60;;;;;;5050707;28;20192;-72
2023/01/12 06:26:34;;;;;;;5.60;1.30;;;29.50;47.30;;;;;;5053206;28;20259;-71
2023/01/12 06:29:04;;;;;;;2.45;1.05;;;29.40;47.50;;;;;;5055160;28;20180;-74
2023/01/12 06:31:31;;;;;;;5.15;1.48;;;29.80;47.40;;;;;;5050276;28;20605;-73
2023/01/12 06:33:59;;;;;;;3.22;1.40;;;29.90;46.60;;;;;;5052380;28;20574;-72
2023/01/12 06:36:26;;;;;;;5.53;1.63;;;29.50;46.70;;;;;;5051791;28;20195;-72
2023/01/12 06:38:53;;;;;;;3.22;1.17;;;29.30;47.70;;;;;;5056305;28;20207;-73
2023/01/12 06:44:06;;;;;;;2.93;1.20;;;29.50;48.00;;;;;;5050634;28;20246;-71
2023/01/12 06:46:33;;;;;;;5.17;1.37;;;29.30;47.70;;;;;;5051357;28;20270;-72
2023/01/12 06:49:00;;;;;;;4.78;1.20;;;29.30;47.80;;;;;;5052428;28;20246;-70
2023/01/12 06:51:28;;;;;;;3.67;1.23;;;28.80;49.40;;;;;;5052664;28;20315;-72
2023/01/12 06:53:55;;;;;;;4.23;1.00;;;29.10;48.70;;;;;;5052436;28;20211;-72
2023/01/12 06:56:23;;;;;;;5.40;1.10;;;29.00;47.70;;;;;;5052195;28;20238;-71
2023/01/12 06:58:50;;;;;;;4.23;1.23;;;29.00;47.50;;;;;;5052086;28;20180;-73
2023/01/12 07:01:17;;;;;;;7.57;1.67;;;29.40;47.00;;;;;;5053356;28;20590;-71
2023/01/12 07:03:45;;;;;;;3.80;1.20;;;29.20;47.60;;;;;;5050810;28;20190;-75
2023/01/12 07:06:13;;;;;;;4.10;1.47;;;29.30;47.10;;;;;;5052076;28;20172;-71
2023/01/12 07:08:41;;;;;;;10.50;1.80;;;28.40;50.00;;;;;;5052106;28;20171;-70
2023/01/12 07:11:11;;;;;;;4.50;1.50;;;28.40;50.80;;;;;;5051748;28;20263;-71
2023/01/12 07:13:39;;;;;;;4.93;1.33;;;28.60;50.80;;;;;;5052685;28;20199;-72
2023/01/12 07:16:06;;;;;;;7.33;1.40;;;29.10;48.60;;;;;;5051146;28;20180;-72
2023/01/12 07:18:34;;;;;;;3.13;1.43;;;29.30;48.60;;;;;;5060470;28;20183;-72
2023/01/12 07:21:06;;;;;;;3.53;1.40;;;29.20;49.10;;;;;;5053394;28;20184;-72
2023/01/12 07:23:33;;;;;;;5.43;1.63;;;28.10;51.50;;;;;;5054689;28;20211;-71
2023/01/12 07:26:01;;;;;;;5.43;1.50;;;28.20;51.70;;;;;;5052474;28;20180;-73
2023/01/12 07:28:30;;;;;;;3.43;1.30;;;27.40;53.80;;;;;;5053388;28;20275;-74
2023/01/12 07:31:02;;;;;;;5.43;1.40;;;26.90;55.40;;;;;;5052055;28;20647;-72
2023/01/12 07:33:29;;;;;;;4.40;1.40;;;26.80;56.70;;;;;;5051631;28;20222;-73
2023/01/12 07:36:00;;;;;;;7.67;1.47;;;26.80;56.20;;;;;;5050285;28;20202;-72
2023/01/12 07:38:29;;;;;;;5.03;1.70;;;26.00;58.00;;;;;;5053324;28;20274;-70
2023/01/12 07:41:01;;;;;;;8.80;1.80;;;25.90;58.80;;;;;;5052504;28;20234;-71
2023/01/12 07:43:29;;;;;;;5.70;1.30;;;25.60;59.90;;;;;;5053162;28;20203;-72
2023/01/12 07:45:57;;;;;;;7.70;1.57;;;25.90;59.50;;;;;;5053091;28;20180;-72
2023/01/12 07:48:26;;;;;;;3.80;1.30;;;25.90;59.70;;;;;;5051366;28;20616;-73
2023/01/12 07:50:53;;;;;;;4.63;1.70;;;25.90;59.90;;;;;;5051102;28;20238;-72
2023/01/12 07:53:21;;;;;;;6.77;1.60;;;25.80;60.40;;;;;;5051862;28;20673;-72
2023/01/12 07:55:48;;;;;;;4.60;1.90;;;25.50;61.20;;;;;;5055859;28;20176;-72
2023/01/12 07:58:16;;;;;;;8.73;1.80;;;25.30;61.80;;;;;;5052070;28;20573;-71
2023/01/12 08:00:43;;;;;;;4.53;1.33;;;25.10;62.30;;;;;;5053541;28;20179;-71
2023/01/12 08:03:12;;;;;;;8.60;2.10;;;24.70;63.40;;;;;;5052145;28;20203;-73
2023/01/12 08:05:40;;;;;;;6.20;1.37;;;24.70;63.70;;;;;;5051026;28;20223;-72
2023/01/12 08:08:08;;;;;;;4.97;1.60;;;24.50;64.50;;;;;;5052606;28;20186;-74
2023/01/12 08:10:35;;;;;;;8.23;1.77;;;24.50;64.40;;;;;;5048365;28;20188;-71
2023/01/12 08:13:03;;;;;;;5.60;1.53;;;24.40;64.80;;;;;;5047960;28;20180;-74
2023/01/12 08:15:37;;;;;;;5.07;1.70;;;24.30;65.40;;;;;;5051293;28;20302;-74
2023/01/12 08:18:12;;;;;;;8.80;1.43;;;24.10;65.50;;;;;;5051747;28;20320;-72
2023/01/12 08:20:40;;;;;;;5.93;1.80;;;24.10;65.80;;;;;;5051422;28;20194;-73
2023/01/12 08:23:39;;;;;;;11.30;2.43;;;24.10;65.60;;;;;;5051428;28;20190;-73
2023/01/12 08:26:16;;;;;;;3.87;1.67;;;24.00;66.20;;;;;;5051451;28;20310;-72
2023/01/12 08:28:56;;;;;;;8.27;1.93;;;23.80;66.80;;;;;;5050981;28;20211;-74
2023/01/12 08:31:25;;;;;;;9.83;1.80;;;23.80;67.10;;;;;;5052379;28;20183;-73
2023/01/12 08:33:54;;;;;;;8.30;2.20;;;23.90;67.20;;;;;;5054409;28;20684;-72
2023/01/12 08:36:24;;;;;;;7.17;1.83;;;23.80;67.20;;;;;;5065323;28;20184;-74
2023/01/12 08:38:51;;;;;;;6.17;1.77;;;23.70;67.70;;;;;;5055258;28;20176;-74
2023/01/12 08:41:36;;;;;;;9.27;1.87;;;23.70;68.00;;;;;;5049781;28;20697;-71
2023/01/12 08:44:08;;;;;;;5.23;1.87;;;23.60;68.10;;;;;;5050821;28;20168;-72
2023/01/12 08:46:43;;;;;;;7.90;2.07;;;23.70;68.20;;;;;;5053999;28;20717;-72
2023/01/12 08:49:12;;;;;;;5.27;1.70;;;23.70;68.20;;;;;;5053325;28;20182;-73
2023/01/12 08:51:40;;;;;;;6.67;1.47;;;23.60;68.40;;;;;;5055823;28;20239;-74
2023/01/12 08:54:10;;;;;;;7.23;1.83;;;23.50;68.10;;;;;;5055051;28;20575;-75
2023/01/12 08:56:37;;;;;;;8.07;1.90;;;23.50;68.30;;;;;;5054082;28;20201;-73
2023/01/12 08:59:05;;;;;;;7.90;2.03;;;23.50;68.80;;;;;;5055441;28;20294;-73
2023/01/12 09:01:33;;;;;;;6.90;2.00;;;23.40;68.90;;;;;;5054972;28;20180;-73
2023/01/12 09:04:00;;;;;;;9.57;2.00;;;23.30;68.90;;;;;;5054493;28;20184;-75
2023/01/12 09:06:30;;;;;;;6.10;1.70;;;23.30;69.40;;;;;;5055627;28;20183;-72
2023/01/12 09:09:00;;;;;;;7.17;1.93;;;23.30;69.30;;;;;;5051991;28;20653;-75
2023/01/12 09:11:30;;;;;;;8.27;1.90;;;23.30;69.50;;;;;;5054396;28;20183;-72
2023/01/12 09:13:58;;;;;;;4.40;1.97;;;23.30;69.70;;;;;;5054180;28;20303;-73
2023/01/12 09:16:27;;;;;;;6.40;1.73;;;23.10;69.70;;;;;;5054666;28;20550;-71
2023/01/12 09:18:55;;;;;;;7.50;2.00;;;23.20;69.80;;;;;;5055798;28;20270;-72
2023/01/12 09:21:24;;;;;;;4.30;1.93;;;23.20;69.60;;;;;;5050589;28;20518;-71
2023/01/12 09:23:52;;;;;;;8.30;2.00;;;23.20;69.50;;;;;;5053951;28;20184;-74
2023/01/12 09:26:22;;;;;;;10.83;2.27;;;23.20;69.80;;;;;;5046109;28;20259;-75
2023/01/12 09:28:50;;;;;;;7.70;2.20;;;23.10;70.00;;;;;;5051383;28;20627;-74
2023/01/12 09:31:22;;;;;;;7.10;1.83;;;23.10;70.20;;;;;;5052368;28;20180;-72
2023/01/12 09:33:50;;;;;;;10.17;2.27;;;23.00;70.00;;;;;;5054445;28;20664;-71
2023/01/12 09:36:22;;;;;;;8.40;2.37;;;23.10;70.20;;;;;;5053301;28;20219;-72
2023/01/12 09:38:50;;;;;;;4.17;1.60;;;23.00;70.10;;;;;;5055365;28;20187;-72
2023/01/12 09:47:28;;;;;;;6.77;2.33;;;22.90;70.60;;;;;;5044493;28;20191;-74
2023/01/12 09:50:33;;;;;;;5.40;1.87;;;22.80;71.00;;;;;;5051497;28;20624;-74
2023/01/12 09:53:29;;;;;;;7.30;2.10;;;22.80;71.20;;;;;;5042221;28;20192;-72
2023/01/12 09:56:31;;;;;;;8.00;2.03;;;22.80;71.40;;;;;;5047902;28;20530;-72
2023/01/12 09:59:16;;;;;;;9.90;2.40;;;22.90;71.10;;;;;;5051174;28;20178;-72
2023/01/12 10:01:44;;;;;;;7.37;1.87;;;23.00;71.10;;;;;;5047919;28;20271;-70
2023/01/12 10:04:12;;;;;;;8.50;2.20;;;22.90;71.20;;;;;;5051040;28;20180;-73
2023/01/12 10:06:40;;;;;;;9.67;2.20;;;22.80;71.20;;;;;;5051165;28;20183;-70
2023/01/12 10:09:14;;;;;;;6.60;2.43;;;22.80;71.40;;;;;;5052910;28;20692;-72
2023/01/12 10:11:51;;;;;;;6.37;2.07;;;22.80;71.40;;;;;;5048550;28;20635;-74
2023/01/12 10:14:46;;;;;;;8.57;2.57;;;22.80;71.50;;;;;;5052741;28;20211;-75
2023/01/12 10:17:43;;;;;;;8.67;2.00;;;22.80;71.40;;;;;;5049369;28;20187;-71
2023/01/12 10:20:30;;;;;;;9.17;2.03;;;22.80;71.60;;;;;;5053411;28;20188;-74
2023/01/12 10:23:13;;;;;;;5.27;1.77;;;22.80;71.70;;;;;;5053795;28;20195;-73
2023/01/12 10:25:47;;;;;;;10.70;1.90;;;22.80;71.80;;;;;;5053435;28;20183;-73
2023/01/12 10:28:20;;;;;;;9.70;2.17;;;22.80;72.00;;;;;;5052975;28;20255;-73
2023/01/12 10:30:48;;;;;;;10.97;2.33;;;22.70;72.10;;;;;;5048577;28;20262;-73
2023/01/12 10:33:25;;;;;;;7.47;1.93;;;22.60;72.10;;;;;;5052506;28;20180;-71
2023/01/12 10:36:03;;;;;;;4.93;1.93;;;22.60;72.20;;;;;;5054090;28;20267;-73
2023/01/12 10:39:02;;;;;;;9.20;2.00;;;22.60;72.30;;;;;;5049425;28;20183;-71
2023/01/12 10:41:38;;;;;;;5.07;1.80;;;22.60;72.20;;;;;;5052245;28;20184;-72
2023/01/12 10:44:12;;;;;;;9.23;2.23;;;22.60;72.30;;;;;;5072990;28;20182;-72
2023/01/12 10:46:39;;;;;;;9.93;2.03;;;22.60;72.30;;;;;;5057641;28;20208;-69
2023/01/12 10:49:21;;;;;;;8.43;1.90;;;22.50;72.40;;;;;;5057769;28;20176;-73
2023/01/12 10:51:53;;;;;;;7.43;2.13;;;22.50;72.20;;;;;;5070099;28;20676;-73
2023/01/12 10:54:31;;;;;;;6.47;1.60;;;22.60;72.30;;;;;;5048039;28;20215;-72
2023/01/12 10:57:20;;;;;;;7.80;2.33;;;22.50;72.40;;;;;;5053753;28;20176;-74
2023/01/12 11:00:01;;;;;;;5.83;1.90;;;22.50;72.70;;;;;;5054921;28;20258;-73
2023/01/12 11:02:43;;;;;;;9.63;2.00;;;22.60;72.50;;;;;;5062145;28;20262;-74
2023/01/12 11:05:33;;;;;;;7.10;1.77;;;22.50;72.60;;;;;;5058072;28;20686;-72
2023/01/12 11:08:01;;;;;;;7.70;1.97;;;22.50;72.70;;;;;;5053196;28;20180;-75
2023/01/12 11:10:37;;;;;;;4.53;1.80;;;22.50;72.70;;;;;;5053759;28;20180;-75
2023/01/12 11:13:07;;;;;;;6.87;1.80;;;22.50;72.80;;;;;;5058234;28;20187;-73
2023/01/12 11:15:39;;;;;;;7.07;1.97;;;22.50;72.70;;;;;;5054788;28;20215;-71
2023/01/12 11:18:21;;;;;;;4.97;1.77;;;22.50;72.80;;;;;;5050358;28;20275;-75
2023/01/12 11:21:07;;;;;;;7.77;2.07;;;22.50;72.70;;;;;;5062332;28;20222;-71
2023/01/12 11:24:16;;;;;;;6.90;1.70;;;22.50;72.80;;;;;;5054646;28;20179;-71
2023/01/12 11:26:56;;;;;;;7.00;2.10;;;22.50;73.10;;;;;;5029667;28;20485;-74
2023/01/12 11:29:45;;;;;;;7.93;1.83;;;22.50;73.10;;;;;;5025822;28;20674;-70
2023/01/12 11:32:24;;;;;;;6.93;1.77;;;22.40;73.20;;;;;;5050417;28;20195;-75
2023/01/12 11:35:16;;;;;;;7.17;1.90;;;22.50;73.30;;;;;;5056140;28;20199;-74
2023/01/12 11:37:45;;;;;;;8.03;2.00;;;22.50;73.40;;;;;;5060995;28;20242;-71
2023/01/12 11:40:29;;;;;;;10.37;1.57;;;22.40;73.40;;;;;;5067827;28;20183;-71
2023/01/12 11:46:14;;;;;;;4.37;1.90;;;22.40;73.70;;;;;;5052124;28;20276;-75
2023/01/12 11:48:54;;;;;;;6.03;1.80;;;22.40;74.10;;;;;;5056653;28;20519;-76
2023/01/12 11:51:22;;;;;;;11.97;2.20;;;22.30;74.10;;;;;;5072277;28;20305;-75
2023/01/12 11:53:49;;;;;;;10.10;2.40;;;22.30;74.40;;;;;;5072586;28;20214;-74
2023/01/12 11:56:19;;;;;;;11.40;2.40;;;22.30;74.50;;;;;;5072479;28;20240;-72
2023/01/12 11:59:07;;;;;;;6.70;2.27;;;22.30;74.70;;;;;;5056992;28;20212;-72
2023/01/12 12:01:58;;;;;;;7.40;2.07;;;22.30;74.80;;;;;;5072657;28;20195;-70
2023/01/12 12:04:47;;;;;;;6.93;1.87;;;22.30;74.80;;;;;;5059306;28;20253;-71
2023/01/12 12:07:20;;;;;;;10.63;2.23;;;22.30;74.90;;;;;;5065697;28;20183;-70
2023/01/12 12:09:56;;;;;;;7.80;2.37;;;22.30;75.00;;;;;;5057679;28;20172;-71
2023/01/12 12:12:44;;;;;;;11.50;2.20;;;22.30;75.00;;;;;;5064261;28;20179;-71
2023/01/12 12:15:38;;;;;;;7.93;2.07;;;22.30;75.20;;;;;;5044527;28;20693;-71
2023/01/12 12:18:15;;;;;;;9.50;2.27;;;22.30;75.30;;;;;;5058746;28;20544;-70
2023/01/12 12:21:31;;;;;;;9.63;2.37;;;22.30;75.30;;;;;;5065071;28;20225;-71
2023/01/12 12:24:20;;;;;;;7.37;2.00;;;22.30;75.50;;;;;;5068744;28;20183;-70
2023/01/12 12:27:28;;;;;;;4.43;1.83;;;22.30;75.50;;;;;;5072647;28;20258;-72
2023/01/12 12:30:00;;;;;;;11.57;1.90;;;22.30;75.60;;;;;;5063044;28;20294;-72
2023/01/12 12:32:34;;;;;;;8.27;2.10;;;22.30;75.70;;;;;;5067869;28;20176;-71
2023/01/12 12:35:19;;;;;;;9.03;2.00;;;22.30;75.70;;;;;;5071396;28;20681;-72
2023/01/12 12:38:08;;;;;;;7.00;1.73;;;22.20;75.80;;;;;;5062800;28;20183;-74
2023/01/12 12:47:22;;;;;;;8.60;1.90;;;22.20;76.10;;;;;;5069462;28;20214;-71
2023/01/12 12:49:55;;;;;;;8.17;2.17;;;22.20;76.10;;;;;;5054193;28;20231;-70
2023/01/12 12:52:28;;;;;;;10.00;1.93;;;22.20;76.10;;;;;;5066102;28;20172;-72
2023/01/12 12:54:58;;;;;;;5.03;2.00;;;22.20;75.90;;;;;;5069717;28;20214;-71
2023/01/12 12:57:25;;;;;;;6.77;1.93;;;22.20;75.90;;;;;;5047460;28;20627;-71
2023/01/12 12:59:58;;;;;;;6.03;1.87;;;22.20;76.00;;;;;;5048520;28;20172;-71
2023/01/12 13:02:33;;;;;;;7.07;1.97;;;22.20;76.10;;;;;;5044954;28;20184;-71
2023/01/12 13:05:04;;;;;;;4.27;1.73;;;22.30;76.30;;;;;;5051826;28;20183;-69
2023/01/12 13:07:36;;;;;;;6.90;1.77;;;22.20;76.10;;;;;;5050168;28;20179;-71
2023/01/12 13:10:16;;;;;;;9.43;1.90;;;22.20;76.20;;;;;;5051119;28;20652;-72
2023/01/12 13:12:44;;;;;;;11.77;1.87;;;22.20;76.30;;;;;;5051869;28;20187;-70
2023/01/12 13:15:31;;;;;;;8.47;1.90;;;22.20;76.50;;;;;;5050000;28;20759;-70
2023/01/12 13:17:59;;;;;;;6.67;1.87;;;22.10;76.60;;;;;;5047625;28;20184;-70
2023/01/12 13:20:52;;;;;;;5.57;2.17;;;22.10;76.60;;;;;;5051620;28;20662;-70
2023/01/12 13:23:43;;;;;;;4.43;1.50;;;22.10;76.60;;;;;;5050239;28;20275;-70
2023/01/12 13:26:33;;;;;;;9.90;1.93;;;22.10;76.70;;;;;;5044557;28;20216;-72
2023/01/12 13:29:28;;;;;;;5.93;1.80;;;22.10;76.50;;;;;;5048423;28;20206;-72
2023/01/12 13:32:23;;;;;;;7.37;1.80;;;22.10;76.40;;;;;;5052700;28;20188;-72
2023/01/12 13:34:53;;;;;;;10.57;2.03;;;22.10;76.50;;;;;;5055076;28;20204;-71
2023/01/12 13:37:43;;;;;;;7.13;1.73;;;22.10;76.50;;;;;;5053802;28;20180;-72
2023/01/12 13:40:26;;;;;;;8.77;1.97;;;22.10;76.50;;;;;;5055185;28;20184;-74
2023/01/12 13:43:15;;;;;;;9.03;2.10;;;22.00;76.40;;;;;;5054548;28;20187;-70
2023/01/12 13:46:03;;;;;;;10.90;2.10;;;22.10;76.30;;;;;;5052404;28;20176;-74
2023/01/12 13:48:34;;;;;;;6.80;1.87;;;22.00;76.40;;;;;;5054349;28;20184;-72
2023/01/12 13:51:20;;;;;;;8.07;2.00;;;22.00;76.30;;;;;;5053744;28;20230;-73
2023/01/12 13:54:11;;;;;;;5.97;1.67;;;22.00;76.10;;;;;;5055659;28;20164;-77
2023/01/12 13:56:39;;;;;;;7.20;1.93;;;22.10;76.00;;;;;;5055809;28;20254;-72
2023/01/12 13:59:15;;;;;;;9.73;1.70;;;22.20;75.40;;;;;;5052581;28;20325;-69
2023/01/12 14:01:45;;;;;;;9.90;1.53;;;22.30;75.40;;;;;;5055468;28;20266;-72